Latest Weather Observations for Glen Innes Airport

IDN60801

Issued at 4:03 am EDT Sunday 14 February 2016 (issued every 30 minutes, with the page automatically refreshed every 10 minutes)

About weather observations | Map of weather stations | Latest weather observations for NSW | Other Formats
Station Details ID: 056243 Name: GLEN INNES AIRPORT AWS Lat: -29.68 Lon: 151.69 Height: 1044.3 m
Data from the previous 72 hours. | See also: Recent months at Glen Innes Airport
Date/Time
EDT
Temp
°C
App
Temp
°C
Dew
Point
Rel
Hum
%
Delta-T
°C
Wind Press
QNH
hPa
Press
MSL
hPa
Rain
since 9 am
mm
Dir
 
Spd
km/h
Gust
km/h
Spd
kts
Gust
kts
14/04:00am 12.2 9.4 11.3 94 0.5 SE 17 20 9 11 1013.7 1008.1 0.0
14/03:34am 13.0 10.1 12.2 95 0.5 SE 19 24 10 13 1013.7 1008.1 0.0
14/03:30am 13.0 9.9 12.1 94 0.5 SE 20 24 11 13 1013.9 1008.2 0.0
14/03:00am 13.4 10.4 12.5 94 0.5 SE 20 26 11 14 1014.0 1008.3 0.0
14/02:48am 13.4 11.0 12.5 94 0.5 SE 17 24 9 13 1014.2 1008.5 0.0
14/02:30am 13.5 11.4 12.4 93 0.6 SE 15 22 8 12 1014.4 1008.8 0.0
14/02:02am 13.6 10.5 12.3 92 0.7 ESE 20 28 11 15 1014.8 1009.2 0.0
14/02:00am 13.6 10.5 12.3 92 0.7 ESE 20 28 11 15 1014.8 1009.2 0.0
14/01:30am 14.2 11.5 12.9 92 0.8 SE 19 28 10 15 1015.3 1009.7 0.0
14/01:00am 14.2 11.4 13.1 93 0.6 ESE 20 28 11 15 1015.5 1009.9 0.0
14/12:30am 14.1 12.2 13.1 94 0.6 SE 15 19 8 10 1015.8 1010.2 0.0
14/12:29am 14.0 12.1 13.1 94 0.5 SE 15 19 8 10 1015.8 1010.2 0.0
14/12:00am 13.8 11.7 12.5 92 0.7 ESE 15 20 8 11 1016.1 1010.4 0.0
 
Date/Time
EDT
Temp
°C
App
Temp
°C
Dew
Point
Rel
Hum
%
Delta-T
°C
Wind Press
QNH
hPa
Press
MSL
hPa
Rain
since 9 am
mm
Dir
 
Spd
km/h
Gust
km/h
Spd
kts
Gust
kts
13/11:30pm 13.9 11.9 12.6 92 0.7 ESE 15 20 8 11 1016.2 1010.6 0.0
13/11:00pm 13.9 11.5 12.5 91 0.8 ESE 17 19 9 10 1016.3 1010.7 0.0
13/10:30pm 13.8 10.9 12.2 90 0.9 ESE 19 20 10 11 1016.3 1010.7 0.0
13/10:00pm 13.7 11.7 11.6 87 1.2 ESE 13 15 7 8 1016.5 1010.9 0.0
13/09:30pm 14.4 12.6 12.1 86 1.3 ESE 13 19 7 10 1016.4 1010.8 0.0
13/09:00pm 15.6 13.9 12.4 81 1.8 ESE 13 17 7 9 1016.3 1010.7 0.0
13/08:30pm 16.2 14.7 12.0 76 2.4 E 11 17 6 9 1016.1 1010.4 0.0
13/08:00pm 17.3 15.8 12.0 71 3.1 E 11 13 6 7 1015.8 1010.2 0.0
13/07:30pm 20.1 17.8 11.8 59 4.8 E 15 19 8 10 1015.5 1009.9 0.0
13/07:00pm 22.1 19.4 11.8 52 6.1 E 17 22 9 12 1015.2 1009.5 0.0
13/06:30pm 23.2 19.8 11.3 47 7.0 E 20 26 11 14 1015.1 1009.4 0.0
13/06:00pm 23.9 20.8 12.2 48 7.0 E 20 26 11 14 1015.0 1009.3 0.0
13/05:30pm 24.1 21.0 12.1 47 7.2 E 20 32 11 17 1015.0 1009.3 0.0
13/05:00pm 24.4 21.4 12.0 46 7.4 E 19 30 10 16 1015.0 1009.3 0.0
13/04:30pm 24.5 21.5 12.1 46 7.4 ENE 19 30 10 16 1015.1 1009.4 0.0
13/04:00pm 24.5 21.4 12.1 46 7.4 E 20 33 11 18 1015.4 1009.8 0.0
13/03:30pm 24.0 20.5 11.0 44 7.6 E 20 30 11 16 1015.7 1010.1 0.0
13/03:00pm 24.4 22.0 12.7 48 7.1 E 17 28 9 15 1015.7 1010.1 0.0
13/02:30pm 24.2 21.6 11.9 46 7.3 ESE 17 28 9 15 1016.2 1010.6 0.0
13/02:00pm 24.0 22.1 14.1 54 6.1 E 17 32 9 17 1016.5 1010.9 0.0
13/01:30pm 23.5 21.1 13.9 55 5.9 E 19 28 10 15 1016.7 1011.1 0.0
13/01:00pm 23.4 20.5 12.4 50 6.6 E 19 28 10 15 1016.8 1011.2 0.0
13/12:30pm 23.0 20.6 12.6 52 6.2 E 17 26 9 14 1017.1 1011.5 0.0
13/12:00pm 22.2 19.1 11.6 51 6.2 ESE 19 28 10 15 1017.3 1011.7 0.0
13/11:30am 21.6 19.4 14.3 63 4.5 E 19 28 10 15 1017.6 1012.0 0.0
13/11:00am 21.0 18.3 13.4 62 4.6 ESE 20 30 11 16 1017.9 1012.4 0.0
13/10:30am 20.2 17.0 13.2 64 4.2 ESE 22 30 12 16 1017.9 1012.4 0.0
13/10:00am 19.3 15.1 12.3 64 4.1 E 26 35 14 19 1017.8 1012.2 0.0
13/09:30am 18.1 13.1 12.1 68 3.5 E 30 39 16 21 1017.6 1012.0 0.0
13/09:00am 17.5 12.9 12.4 72 3.0 ESE 28 37 15 20 1017.8 1012.2 0.0
13/08:32am 16.4 12.3 12.6 78 2.2 ESE 26 35 14 19 1017.7 1012.1 0.0
13/08:30am 16.3 12.2 12.8 80 2.0 ESE 26 35 14 19 1017.7 1012.1 0.0
13/08:00am 14.6 11.0 11.7 83 1.6 ESE 22 33 12 18 1017.5 1011.9 0.0
13/07:30am 14.0 9.3 11.9 87 1.2 ESE 28 39 15 21 1017.3 1011.7 0.0
13/07:00am 12.9 9.9 11.8 93 0.6 ESE 19 26 10 14 1017.2 1011.6 0.0
13/06:42am 12.3 9.5 11.4 94 0.5 ESE 17 24 9 13 1017.1 1011.5 0.0
13/06:30am 11.7 9.0 10.3 91 0.8 ESE 15 19 8 10 1017.1 1011.5 0.0
13/06:00am 12.7 9.4 10.9 89 1.0 SE 19 24 10 13 1016.7 1011.1 0.0
13/05:30am 13.6 10.0 11.8 89 1.0 ESE 22 32 12 17 1016.6 1011.0 0.0
13/05:00am 13.6 9.6 11.8 89 1.0 ESE 24 35 13 19 1016.6 1011.0 0.0
13/04:30am 13.4 10.4 11.8 90 0.9 SE 19 24 10 13 1016.7 1011.1 0.0
13/04:00am 12.3 9.0 11.0 92 0.7 ESE 19 22 10 12 1016.8 1011.2 0.0
13/03:30am 12.6 9.9 11.7 94 0.5 SE 17 26 9 14 1017.0 1011.3 0.0
13/03:15am 11.8 9.6 10.7 93 0.6 ESE 13 17 7 9 1017.0 1011.3 0.0
13/03:00am 11.7 9.4 10.4 92 0.7 ESE 13 15 7 8 1017.0 1011.3 0.0
13/02:30am 12.5 10.0 11.1 91 0.8 ESE 15 20 8 11 1017.1 1011.5 0.0
13/02:06am 13.1 10.3 11.5 90 0.9 ESE 17 20 9 11 1017.3 1011.7 0.0
13/02:00am 13.1 10.3 11.5 90 0.9 ESE 17 22 9 12 1017.5 1011.9 0.0
13/01:54am 13.3 10.2 11.7 90 0.9 ESE 19 26 10 14 1017.4 1011.8 0.0
13/01:30am 13.2 10.6 11.9 92 0.7 E 17 20 9 11 1017.7 1012.1 0.0
13/01:14am 13.2 10.6 11.9 92 0.7 E 17 20 9 11 1017.8 1012.2 0.0
13/01:00am 13.4 10.8 12.1 92 0.7 ESE 17 20 9 11 1018.1 1012.5 0.0
13/12:50am 13.2 10.6 11.9 92 0.7 ESE 17 19 9 10 1018.2 1012.6 0.0
13/12:30am 13.4 10.8 12.0 91 0.8 ESE 17 22 9 12 1018.4 1012.8 0.0
13/12:00am 13.3 11.1 12.0 92 0.7 E 15 20 8 11 1018.5 1012.9 0.0
 
Date/Time
EDT
Temp
°C
App
Temp
°C
Dew
Point
Rel
Hum
%
Delta-T
°C
Wind Press
QNH
hPa
Press
MSL
hPa
Rain
since 9 am
mm
Dir
 
Spd
km/h
Gust
km/h
Spd
kts
Gust
kts
12/11:30pm 13.4 10.8 12.0 91 0.8 E 17 19 9 10 1018.6 1013.0 0.0
12/11:00pm 13.7 11.4 11.9 89 1.0 E 15 19 8 10 1018.8 1013.3 0.0
12/10:30pm 13.6 12.0 11.5 87 1.2 E 11 15 6 8 1018.9 1013.4 0.0
12/10:00pm 13.9 12.1 10.9 82 1.7 E 11 15 6 8 1018.9 1013.4 0.0
12/09:30pm 14.8 12.4 11.4 80 1.9 E 15 19 8 10 1018.8 1013.3 0.0
12/09:00pm 15.9 13.2 11.7 76 2.4 E 17 20 9 11 1018.8 1013.3 0.0
12/08:30pm 16.3 13.5 11.5 73 2.7 E 17 19 9 10 1018.6 1013.0 0.0
12/08:00pm 17.3 14.2 10.4 64 3.9 E 17 24 9 13 1018.3 1012.7 0.0
12/07:30pm 19.1 15.5 10.4 57 4.9 E 20 26 11 14 1017.9 1012.4 0.0
12/07:00pm 20.7 16.2 10.2 51 6.0 E 24 32 13 17 1017.7 1012.1 0.0
12/06:30pm 21.9 17.4 10.1 47 6.7 ENE 24 32 13 17 1017.5 1011.9 0.0
12/06:00pm 22.8 19.1 10.3 45 7.2 ENE 20 26 11 14 1017.4 1011.8 0.0
12/05:30pm 23.1 18.9 9.8 43 7.6 E 22 30 12 16 1017.3 1011.7 0.0
12/05:00pm 23.6 20.0 10.6 44 7.5 E 20 33 11 18 1017.2 1011.6 0.0
12/04:30pm 23.8 20.6 11.8 47 7.1 ESE 20 28 11 15 1017.1 1011.5 0.0
12/04:00pm 24.1 20.9 11.8 46 7.3 E 20 30 11 16 1017.4 1011.8 0.0
12/03:30pm 23.0 19.6 9.0 41 7.9 ESE 17 32 9 17 1017.6 1012.0 0.0
12/03:00pm 23.7 21.0 11.7 47 7.1 ESE 17 26 9 14 1017.8 1012.2 0.0
12/02:30pm 23.0 19.8 11.4 48 6.8 E 19 30 10 16 1018.1 1012.5 0.0
12/02:00pm 23.0 20.4 12.0 50 6.5 ESE 17 28 9 15 1018.2 1012.6 0.0
12/01:30pm 22.4 20.4 11.5 50 6.4 E 13 26 7 14 1018.5 1012.9 0.0
12/01:00pm 22.3 20.2 13.6 58 5.3 ESE 17 28 9 15 1018.7 1013.1 0.0
12/12:30pm 21.8 19.3 13.4 59 5.1 ESE 19 26 10 14 1018.9 1013.4 0.0
12/12:00pm 21.3 17.9 12.4 57 5.3 ESE 22 32 12 17 1019.3 1013.7 0.0
12/11:30am 20.5 17.3 13.0 62 4.5 ESE 22 30 12 16 1019.3 1013.7 0.0
12/11:00am 20.1 15.9 12.3 61 4.6 E 26 33 14 18 1019.3 1013.7 0.0
12/10:30am 19.4 15.1 12.2 63 4.2 ESE 26 37 14 20 1019.4 1013.8 0.0
12/10:00am 18.2 14.5 12.6 70 3.3 ESE 24 33 13 18 1019.4 1013.8 0.0
12/09:37am 18.2 14.5 12.6 70 3.3 ESE 24 33 13 18 1019.3 1013.7 0.0
12/09:30am 17.7 14.0 12.8 73 2.9 ESE 24 33 13 18 1019.3 1013.7 0.0
12/09:00am 16.9 13.2 12.6 76 2.5 ESE 24 32 13 17 1019.4 1013.8 0.0
12/08:33am 15.5 10.9 12.4 82 1.8 ESE 28 37 15 20 1019.2 1013.6 0.0
12/08:30am 15.6 11.4 12.4 81 1.8 ESE 26 37 14 20 1019.2 1013.6 0.0
12/08:00am 14.5 11.5 12.5 88 1.1 ESE 20 32 11 17 1019.1 1013.5 0.0
12/07:37am 13.7 10.8 12.4 92 0.7 ESE 19 24 10 13 1018.8 1013.3 0.0
12/07:30am 13.3 10.3 11.9 91 0.8 ESE 19 24 10 13 1018.7 1013.1 0.0
12/07:00am 12.6 9.3 11.5 93 0.6 ESE 20 26 11 14 1018.3 1012.7 0.0
12/06:30am 12.2 9.0 11.1 93 0.6 SE 19 22 10 12 1018.2 1012.6 0.0
12/06:00am 11.9 9.7 10.8 93 0.6 ESE 13 17 7 9 1017.6 1012.0 0.0
12/05:30am 12.0 9.9 11.2 95 0.4 ESE 13 19 7 10 1017.5 1011.9 0.0
12/05:28am 12.0 9.9 11.2 95 0.4 ESE 13 19 7 10 1017.4 1011.8 0.0
12/05:10am 11.7 9.5 10.9 95 0.4 ESE 13 17 7 9 1017.5 1011.9 0.0
12/05:00am 11.5 8.9 10.7 95 0.4 ESE 15 17 8 9 1017.5 1011.9 0.0
12/04:30am 11.8 8.9 11.0 95 0.4 SE 17 20 9 11 1017.6 1012.0 0.0
12/04:00am 11.2 8.1 10.4 95 0.4 ESE 17 19 9 10 1017.7 1012.1 0.0
12/03:30am 11.2 8.1 10.4 95 0.4 ESE 17 19 9 10 1017.8 1012.2 0.0
12/03:00am 11.8 9.6 10.9 94 0.5 E 13 15 7 8 1018.2 1012.6 0.0
12/02:30am 11.8 10.3 10.7 93 0.6 E 9 13 5 7 1018.4 1012.8 0.0
12/02:00am 12.4 10.7 11.3 93 0.6 ESE 11 15 6 8 1018.5 1012.9 0.0
12/01:30am 12.8 10.9 11.7 93 0.6 E 13 17 7 9 1018.6 1013.0 0.0
12/01:00am 12.3 10.4 10.5 89 1.0 E 11 13 6 7 1018.9 1013.4 0.0
12/12:30am 13.8 11.6 12.2 90 0.9 ESE 15 20 8 11 1019.1 1013.5 0.0
12/12:00am 14.8 12.2 13.2 90 0.9 ESE 19 24 10 13 1018.9 1013.4 0.0
 
Date/Time
EDT
Temp
°C
App
Temp
°C
Dew
Point
Rel
Hum
%
Delta-T
°C
Wind Press
QNH
hPa
Press
MSL
hPa
Rain
since 9 am
mm
Dir
 
Spd
km/h
Gust
km/h
Spd
kts
Gust
kts
11/11:30pm 15.0 13.2 13.4 90 0.9 ESE 15 20 8 11 1019.1 1013.5 0.0
11/11:00pm 15.6 12.3 14.0 90 0.9 E 24 30 13 16 1018.8 1013.3 0.0
11/10:30pm 15.3 12.7 13.3 88 1.2 ESE 19 24 10 13 1019.1 1013.5 0.0
11/10:00pm 15.6 13.1 13.4 87 1.3 ESE 19 22 10 12 1018.8 1013.3 0.0
11/09:30pm 16.1 14.1 13.9 87 1.3 ESE 17 22 9 12 1018.4 1012.8 0.0
11/09:00pm 16.4 14.7 13.7 84 1.6 ESE 15 20 8 11 1018.1 1012.5 0.0
11/08:30pm 17.6 15.6 13.9 79 2.2 E 17 26 9 14 1017.8 1012.2 0.0
11/08:00pm 18.9 16.3 13.7 72 3.1 E 20 26 11 14 1017.3 1011.7 0.0
11/07:30pm 20.0 17.2 11.5 58 4.9 E 17 22 9 12 1016.8 1011.2 0.0
11/07:00pm 22.1 18.6 10.9 49 6.5 E 20 28 11 15 1016.5 1010.9 0.0
11/06:30pm 23.0 19.7 10.8 46 7.1 E 19 24 10 13 1016.4 1010.8 0.0
11/06:00pm 23.7 20.5 11.4 46 7.2 E 19 24 10 13 1016.3 1010.7 0.0
11/05:30pm 24.0 21.1 11.0 44 7.6 E 17 26 9 14 1016.3 1010.7 0.0
11/05:00pm 24.0 20.6 11.3 45 7.5 E 20 32 11 17 1016.3 1010.7 0.0
11/04:30pm 24.2 21.6 11.9 46 7.3 E 17 26 9 14 1016.4 1010.8 0.0
11/04:00pm 24.4 21.6 11.4 44 7.7 E 17 30 9 16 1016.5 1010.9 0.0
11/03:30pm 24.0 21.1 12.3 48 7.0 E 19 30 10 16 1016.8 1011.2 0.0
11/03:00pm 23.8 20.8 10.8 44 7.6 ENE 17 26 9 14 1017.1 1011.5 0.0
11/02:30pm 23.8 21.1 11.8 47 7.1 ENE 17 28 9 15 1017.3 1011.7 0.0
11/02:00pm 23.5 21.4 12.5 50 6.6 E 15 26 8 14 1017.6 1012.0 0.0
11/01:30pm 23.2 20.7 12.2 50 6.5 ESE 17 28 9 15 1017.8 1012.2 0.0
11/01:00pm 22.8 20.0 12.7 53 6.0 E 19 28 10 15 1018.1 1012.5 0.0
11/12:30pm 22.4 20.1 12.9 55 5.7 E 17 24 9 13 1018.2 1012.6 0.0
11/12:00pm 22.4 21.3 14.3 60 5.0 E 13 22 7 12 1018.4 1012.8 0.0
11/11:30am 21.9 20.4 13.0 57 5.3 ESE 13 22 7 12 1018.6 1013.0 0.0
11/11:00am 21.3 19.8 13.2 60 4.9 E 13 28 7 15 1018.7 1013.1 0.0
11/10:30am 21.0 19.5 14.2 65 4.1 E 15 20 8 11 1018.7 1013.1 0.0
11/10:00am 19.9 17.6 13.1 65 4.0 SE 17 22 9 12 1018.7 1013.1 0.0
11/09:30am 18.6 16.3 13.0 70 3.3 ESE 17 20 9 11 1018.6 1013.0 0.0
11/09:00am 17.3 14.7 13.2 77 2.4 ESE 19 24 10 13 1018.7 1013.1 -
11/08:41am 16.7 14.3 13.8 83 1.7 ESE 19 22 10 12 1018.6 1013.0 -
11/08:30am 16.3 14.2 13.6 84 1.6 ESE 17 22 9 12 1018.7 1013.1 -
11/08:04am 14.9 12.5 12.8 87 1.2 ESE 17 20 9 11 1018.5 1012.9 -
11/08:00am 14.8 12.7 12.5 86 1.3 ESE 15 20 8 11 1018.4 1012.8 -
11/07:30am 13.9 12.2 12.5 91 0.8 SE 13 17 7 9 1018.1 1012.5 -
11/07:00am 12.4 10.3 11.3 93 0.6 SE 13 15 7 8 1017.8 1012.2 -
11/06:45am 12.5 10.5 11.4 93 0.6 SE 13 17 7 9 1017.6 1012.0 -
11/06:30am 12.7 11.2 11.8 94 0.5 SE 11 13 6 7 1017.4 1011.8 -
11/06:14am 12.7 10.9 12.1 96 0.3 ESE 13 17 7 9 1017.2 1011.6 -
11/06:01am 12.5 10.6 11.9 96 0.3 SE 13 17 7 9 1017.2 1011.6 -
11/06:00am 12.3 10.4 11.7 96 0.3 SE 13 17 7 9 1017.2 1011.6 -
11/05:30am 12.6 10.8 12.1 97 0.3 SE 13 17 7 9 1017.0 1011.3 -
11/05:29am 12.4 10.5 11.9 97 0.3 SE 13 17 7 9 1016.8 1011.2 -
11/05:12am 9.3 6.9 8.5 95 0.4 SE 11 13 6 7 1016.8 1011.2 -
11/05:11am 9.3 6.9 8.5 95 0.4 SE 11 11 6 6 1016.8 1011.2 -
11/05:00am 9.0 6.5 8.2 95 0.4 SE 11 13 6 7 1016.6 1011.0 -
11/04:48am 9.0 7.2 8.1 94 0.5 SE 7 11 4 6 1016.5 1010.9 -
11/04:30am 8.9 6.7 7.8 93 0.6 SE 9 11 5 6 1016.5 1010.9 -
11/04:22am 9.3 6.8 8.2 93 0.6 SE 11 13 6 7 1016.6 1011.0 -
11/04:05am 10.2 8.7 9.1 93 0.6 SE 7 9 4 5 1016.6 1011.0 -

Other Formats:

Comma delimited format used in spreadsheet applications
http://www.bom.gov.au/fwo/IDN60801/IDN60801.94588.axf

JavaScript Object Notation format (JSON) in row-major order
http://www.bom.gov.au/fwo/IDN60801/IDN60801.94588.json